Time;durP1;ratioP1;P1;durP2;ratioP2;P2;SDS_P1;SDS_P2;PMS_P1;PMS_P2;Temp;Humidity;BMP_temperature;BMP_pressure;BME280_temperature;BME280_humidity;BME280_pressure;Samples;Min_cycle;Max_cycle;Signal;HPM_P1;HPM_P2
2023/07/02 00:02:21;;;;;;;6.97;3.25;;;23.10;90.10;;;;;;5103692;28;20075;-61
2023/07/02 00:04:47;;;;;;;5.82;2.83;;;23.10;90.10;;;;;;5112605;28;20448;-61
2023/07/02 00:07:14;;;;;;;5.57;2.55;;;23.00;90.30;;;;;;5102793;28;20087;-66
2023/07/02 00:09:40;;;;;;;6.88;2.60;;;22.80;87.50;;;;;;5092434;28;20047;-67
2023/07/02 00:12:06;;;;;;;6.50;2.90;;;23.10;90.00;;;;;;5099359;28;20082;-67
2023/07/02 00:14:32;;;;;;;5.10;2.53;;;23.00;87.10;;;;;;5112260;28;20050;-66
2023/07/02 00:16:58;;;;;;;4.95;2.67;;;23.10;87.50;;;;;;5110820;28;20550;-67
2023/07/02 00:19:24;;;;;;;6.85;2.95;;;23.20;87.50;;;;;;5099432;28;20076;-66
2023/07/02 00:21:49;;;;;;;6.72;2.88;;;22.90;87.30;;;;;;5112061;28;20083;-69
2023/07/02 00:24:15;;;;;;;5.70;3.10;;;23.10;87.40;;;;;;5110671;28;20044;-66
2023/07/02 00:26:41;;;;;;;7.63;2.80;;;23.00;90.30;;;;;;5112158;28;20085;-61
2023/07/02 00:29:09;;;;;;;8.57;3.03;;;23.20;87.50;;;;;;5112514;28;20433;-60
2023/07/02 00:31:35;;;;;;;6.72;3.10;;;23.10;90.00;;;;;;5075876;28;20052;-62
2023/07/02 00:34:01;;;;;;;7.03;3.35;;;23.00;89.80;;;;;;5112959;28;20381;-63
2023/07/02 00:36:30;;;;;;;6.85;2.97;;;23.00;89.90;;;;;;5099562;28;20216;-64
2023/07/02 00:38:56;;;;;;;6.70;3.30;;;23.00;86.00;;;;;;5112723;28;20050;-61
2023/07/02 00:41:22;;;;;;;7.93;3.38;;;22.60;90.20;;;;;;5108768;28;20032;-66
2023/07/02 00:43:47;;;;;;;5.82;3.50;;;22.90;89.80;;;;;;5109446;28;20073;-66
2023/07/02 00:46:19;;;;;;;6.35;2.80;;;23.00;87.30;;;;;;5112968;28;20039;-66
2023/07/02 00:48:52;;;;;;;8.73;3.53;;;23.00;89.90;;;;;;5112951;28;20048;-68
2023/07/02 00:51:25;;;;;;;7.72;4.00;;;22.70;87.60;;;;;;5110859;28;20043;-67
2023/07/02 00:53:52;;;;;;;8.23;4.03;;;23.10;86.10;;;;;;5112104;28;20051;-66
2023/07/02 00:56:18;;;;;;;7.35;3.60;;;22.80;89.80;;;;;;5112923;28;20046;-64
2023/07/02 00:58:50;;;;;;;7.13;3.95;;;23.00;89.90;;;;;;5110129;28;20408;-63
2023/07/02 01:01:16;;;;;;;8.37;3.90;;;22.80;87.60;;;;;;5108776;28;20039;-62
2023/07/02 01:03:54;;;;;;;9.02;3.92;;;22.80;85.70;;;;;;5110208;28;20506;-65
2023/07/02 01:06:25;;;;;;;9.07;4.50;;;22.90;89.70;;;;;;5112048;28;20047;-67
2023/07/02 01:08:52;;;;;;;6.80;3.72;;;23.10;89.80;;;;;;5090882;28;20039;-67
2023/07/02 01:11:19;;;;;;;8.25;4.10;;;23.00;87.40;;;;;;5110621;28;20044;-66
2023/07/02 01:13:44;;;;;;;9.82;4.35;;;22.70;89.80;;;;;;5111782;28;20058;-65
2023/07/02 01:16:10;;;;;;;8.70;4.32;;;;;;;;;;5110438;28;20039;-68
2023/07/02 01:18:38;;;;;;;11.77;4.90;;;22.70;89.60;;;;;;5111499;28;20046;-65
2023/07/02 01:21:06;;;;;;;10.38;4.40;;;22.80;89.60;;;;;;5109435;28;20052;-65
2023/07/02 01:23:33;;;;;;;10.15;4.43;;;22.80;89.60;;;;;;5092838;28;20040;-67
2023/07/02 01:25:59;;;;;;;9.80;4.45;;;22.70;89.50;;;;;;5112013;28;20119;-67
2023/07/02 01:28:27;;;;;;;8.60;4.65;;;22.60;89.60;;;;;;5110563;28;20139;-60
2023/07/02 01:30:53;;;;;;;9.07;4.05;;;22.70;89.50;;;;;;5111042;28;20091;-67
2023/07/02 01:33:19;;;;;;;11.55;4.90;;;22.70;86.70;;;;;;5111217;28;20078;-66
2023/07/02 01:35:45;;;;;;;8.82;4.63;;;22.80;89.70;;;;;;5114287;28;20039;-67
2023/07/02 01:38:11;;;;;;;10.10;5.20;;;22.80;89.60;;;;;;5114555;28;20036;-67
2023/07/02 01:40:36;;;;;;;9.60;4.60;;;22.70;86.80;;;;;;5111624;28;20031;-66
2023/07/02 01:43:02;;;;;;;9.25;4.90;;;22.70;89.50;;;;;;5110701;28;20054;-67
2023/07/02 01:45:28;;;;;;;10.40;5.10;;;22.90;89.90;;;;;;5113324;28;20086;-60
2023/07/02 01:47:54;;;;;;;9.23;5.00;;;22.70;89.40;;;;;;5115272;28;20175;-60
2023/07/02 01:50:20;;;;;;;9.55;4.97;;;22.70;89.40;;;;;;5114906;28;20078;-61
2023/07/02 01:52:46;;;;;;;8.80;5.10;;;22.70;89.50;;;;;;5113816;28;20051;-66
2023/07/02 01:55:12;;;;;;;11.20;5.25;;;23.10;87.00;;;;;;5095457;28;20100;-60
2023/07/02 01:57:38;;;;;;;10.43;4.95;;;22.60;86.80;;;;;;5116193;28;20067;-60
2023/07/02 02:00:04;;;;;;;11.07;6.05;;;22.80;86.80;;;;;;5109596;28;20432;-60
2023/07/02 02:02:30;;;;;;;12.65;5.63;;;22.60;89.40;;;;;;5107818;28;20068;-60
2023/07/02 02:04:56;;;;;;;9.13;5.13;;;22.70;89.80;;;;;;5114524;28;20107;-61
2023/07/02 02:07:22;;;;;;;10.18;5.38;;;22.60;86.90;;;;;;5114677;28;20493;-61
2023/07/02 02:09:47;;;;;;;11.07;5.03;;;22.60;86.60;;;;;;5114825;28;20042;-60
2023/07/02 02:12:14;;;;;;;9.15;5.32;;;22.70;89.40;;;;;;5112412;28;20035;-62
2023/07/02 02:14:39;;;;;;;9.82;5.30;;;22.80;89.40;;;;;;5114450;28;20050;-67
2023/07/02 02:17:05;;;;;;;11.65;6.30;;;22.60;89.60;;;;;;5106152;28;20044;-62
2023/07/02 02:19:31;;;;;;;14.52;6.30;;;22.70;86.70;;;;;;5114640;28;20047;-60
2023/07/02 02:21:57;;;;;;;9.63;5.28;;;22.60;86.70;;;;;;5115115;28;20126;-61
2023/07/02 02:24:22;;;;;;;11.98;6.07;;;22.70;89.30;;;;;;5114503;28;20119;-60
2023/07/02 02:26:48;;;;;;;11.65;5.70;;;22.60;86.70;;;;;;5114914;28;20043;-60
2023/07/02 02:29:14;;;;;;;12.90;6.45;;;22.70;86.80;;;;;;5114115;28;20079;-61
2023/07/02 02:31:39;;;;;;;12.55;6.13;;;22.70;89.20;;;;;;5113438;28;20134;-61
2023/07/02 02:34:05;;;;;;;10.27;5.53;;;22.80;86.40;;;;;;5108535;28;20079;-63
2023/07/02 02:36:32;;;;;;;11.68;5.85;;;;;;;;;;5102397;28;20130;-65
2023/07/02 02:38:58;;;;;;;12.25;5.97;;;22.60;89.30;;;;;;5112547;28;20176;-66
2023/07/02 02:41:23;;;;;;;12.07;5.93;;;22.60;89.20;;;;;;5113963;28;20079;-66
2023/07/02 02:43:49;;;;;;;10.65;5.95;;;22.60;89.20;;;;;;5111730;28;20085;-66
2023/07/02 02:46:20;;;;;;;13.60;6.55;;;22.60;86.60;;;;;;5107665;28;20042;-67
2023/07/02 02:48:46;;;;;;;13.30;6.53;;;;;;;;;;5112521;28;20054;-66
2023/07/02 02:51:12;;;;;;;12.45;6.68;;;22.60;84.80;;;;;;5111473;28;20476;-67
2023/07/02 02:53:38;;;;;;;13.85;6.68;;;22.50;89.10;;;;;;5112425;28;20056;-66
2023/07/02 02:56:04;;;;;;;14.68;7.30;;;22.50;89.10;;;;;;5108831;28;20119;-66
2023/07/02 02:58:30;;;;;;;15.38;6.45;;;22.30;89.10;;;;;;5113889;28;20040;-66
2023/07/02 03:00:55;;;;;;;12.93;6.78;;;22.60;89.10;;;;;;5113602;28;20374;-65
2023/07/02 03:03:24;;;;;;;13.85;7.20;;;22.70;89.30;;;;;;5112975;28;20039;-68
2023/07/02 03:05:50;;;;;;;12.88;6.20;;;22.60;89.10;;;;;;5112045;28;20036;-67
2023/07/02 03:08:16;;;;;;;13.43;6.75;;;22.50;89.30;;;;;;5108806;28;20039;-67
2023/07/02 03:10:42;;;;;;;14.15;6.90;;;22.60;87.80;;;;;;5113603;28;20047;-66
2023/07/02 03:13:07;;;;;;;13.13;7.22;;;22.50;89.10;;;;;;5113129;28;20038;-67
2023/07/02 03:15:33;;;;;;;14.32;7.07;;;22.70;86.60;;;;;;5111580;28;20859;-68
2023/07/02 03:17:59;;;;;;;13.93;6.40;;;22.60;86.60;;;;;;5112788;28;20047;-66
2023/07/02 03:20:24;;;;;;;15.40;6.95;;;22.40;89.00;;;;;;5112148;28;20048;-66
2023/07/02 03:22:50;;;;;;;14.00;6.82;;;22.50;89.00;;;;;;5068712;28;20466;-66
2023/07/02 03:25:16;;;;;;;11.98;6.43;;;22.50;89.00;;;;;;5093593;28;20043;-65
2023/07/02 03:27:42;;;;;;;12.50;6.40;;;22.40;88.90;;;;;;5093281;28;20047;-66
2023/07/02 03:30:08;;;;;;;12.95;6.22;;;22.50;89.00;;;;;;5094463;28;20052;-65
2023/07/02 03:32:34;;;;;;;13.13;6.65;;;22.60;89.20;;;;;;5094279;28;20144;-67
2023/07/02 03:35:01;;;;;;;12.80;6.75;;;22.50;89.00;;;;;;5093788;28;20073;-66
2023/07/02 03:37:26;;;;;;;12.52;6.90;;;22.50;89.00;;;;;;5092924;28;20108;-66
2023/07/02 03:39:52;;;;;;;15.73;7.32;;;22.50;89.10;;;;;;5113085;28;20047;-66
2023/07/02 03:42:18;;;;;;;13.05;7.30;;;;;;;;;;5106087;28;20040;-65
2023/07/02 03:44:44;;;;;;;16.45;7.40;;;22.40;88.90;;;;;;5106542;28;20044;-65
2023/07/02 03:47:12;;;;;;;13.55;6.82;;;22.50;89.00;;;;;;5092945;28;20055;-65
2023/07/02 03:49:37;;;;;;;13.25;7.10;;;22.50;88.90;;;;;;5111603;28;20448;-67
2023/07/02 03:52:04;;;;;;;12.20;6.50;;;22.40;89.10;;;;;;5112317;28;20036;-66
2023/07/02 03:54:29;;;;;;;15.60;7.47;;;22.50;86.00;;;;;;5111324;28;20062;-61
2023/07/02 03:56:55;;;;;;;12.70;7.47;;;22.40;89.00;;;;;;5113059;28;20051;-67
2023/07/02 03:59:21;;;;;;;11.98;6.95;;;22.60;89.30;;;;;;5109933;28;20185;-66
2023/07/02 04:01:47;;;;;;;13.30;7.07;;;22.80;86.20;;;;;;5112457;28;20040;-66
2023/07/02 04:04:12;;;;;;;13.95;7.13;;;22.60;86.30;;;;;;5110912;28;20078;-65
2023/07/02 04:06:38;;;;;;;15.98;7.57;;;22.40;88.90;;;;;;5112329;28;20035;-66
2023/07/02 04:09:04;;;;;;;12.15;6.63;;;22.60;88.80;;;;;;5102921;28;20044;-66
2023/07/02 04:11:30;;;;;;;14.75;7.22;;;22.50;88.60;;;;;;5110593;28;20032;-66
2023/07/02 04:13:55;;;;;;;18.17;7.70;;;22.40;86.00;;;;;;5111317;28;20039;-65
2023/07/02 04:16:21;;;;;;;16.42;7.47;;;22.80;86.20;;;;;;5109328;28;20038;-66
2023/07/02 04:18:47;;;;;;;14.40;7.15;;;22.70;88.90;;;;;;5106548;28;20040;-66
2023/07/02 04:21:13;;;;;;;15.60;7.13;;;22.70;88.50;;;;;;5111389;28;20040;-65
2023/07/02 04:23:38;;;;;;;15.80;7.50;;;22.70;88.60;;;;;;5110737;28;20044;-67
2023/07/02 04:26:05;;;;;;;13.55;7.35;;;;;;;;;;5111138;28;20036;-65
2023/07/02 04:28:31;;;;;;;13.95;6.97;;;22.70;88.40;;;;;;5111616;28;20479;-65
2023/07/02 04:30:57;;;;;;;15.98;7.72;;;22.90;88.50;;;;;;5102693;28;20048;-62
2023/07/02 04:33:23;;;;;;;13.77;7.93;;;22.70;88.30;;;;;;5089827;28;20039;-61
2023/07/02 04:35:48;;;;;;;13.10;6.75;;;22.70;88.40;;;;;;5088752;28;20047;-63
2023/07/02 04:38:14;;;;;;;14.48;7.30;;;22.80;86.30;;;;;;5109157;28;20104;-60
2023/07/02 04:40:44;;;;;;;14.82;6.80;;;22.70;88.10;;;;;;5112044;28;20039;-61
2023/07/02 04:43:10;;;;;;;14.85;7.32;;;22.80;88.10;;;;;;5110245;28;20477;-61
2023/07/02 04:45:36;;;;;;;13.48;6.88;;;22.90;88.00;;;;;;5110573;28;20035;-61
2023/07/02 04:48:03;;;;;;;13.77;7.15;;;22.80;88.60;;;;;;5112964;28;20039;-61
2023/07/02 04:50:29;;;;;;;14.20;7.28;;;23.00;88.00;;;;;;5110007;28;20044;-62
2023/07/02 04:52:55;;;;;;;11.50;6.45;;;22.80;87.70;;;;;;5112473;28;20036;-62
2023/07/02 04:55:21;;;;;;;13.77;7.35;;;22.90;85.30;;;;;;5112996;28;20083;-60
2023/07/02 04:57:47;;;;;;;13.48;7.65;;;22.90;85.10;;;;;;5112716;28;20464;-62
2023/07/02 05:00:14;;;;;;;15.57;7.45;;;22.90;85.10;;;;;;5114532;28;20055;-62
2023/07/02 05:02:40;;;;;;;13.38;6.57;;;22.80;87.70;;;;;;5113699;28;20071;-68
2023/07/02 05:05:07;;;;;;;11.88;7.20;;;22.90;88.10;;;;;;5115628;28;20044;-61
2023/07/02 05:07:33;;;;;;;15.50;7.22;;;;;;;;;;5116974;28;20138;-59
2023/07/02 05:09:59;;;;;;;12.75;7.07;;;22.70;83.30;;;;;;5116124;28;20506;-62
2023/07/02 05:12:24;;;;;;;15.63;7.18;;;22.80;87.30;;;;;;5114789;28;20067;-68
2023/07/02 05:14:50;;;;;;;14.45;7.57;;;23.10;84.90;;;;;;5111688;28;20501;-60
2023/07/02 05:17:17;;;;;;;13.68;7.03;;;23.30;87.00;;;;;;5115006;28;20040;-65
2023/07/02 05:19:44;;;;;;;11.43;6.28;;;23.10;84.20;;;;;;5115438;28;20036;-65
2023/07/02 05:22:10;;;;;;;12.35;6.90;;;23.60;87.10;;;;;;5113350;28;20442;-63
2023/07/02 05:24:36;;;;;;;12.88;7.53;;;23.60;83.90;;;;;;5112939;28;20040;-66
2023/07/02 05:27:02;;;;;;;15.93;7.88;;;23.70;83.50;;;;;;5114523;28;20377;-60
2023/07/02 05:29:28;;;;;;;14.40;7.32;;;23.70;82.90;;;;;;5115561;28;20481;-62
2023/07/02 05:31:53;;;;;;;13.75;6.85;;;24.10;85.60;;;;;;5112970;28;20055;-69
2023/07/02 05:34:19;;;;;;;13.38;7.72;;;24.10;82.50;;;;;;5108406;28;20079;-65
2023/07/02 05:36:45;;;;;;;15.23;8.52;;;24.20;82.30;;;;;;5114386;28;20045;-60
2023/07/02 05:39:11;;;;;;;13.90;7.63;;;24.10;82.00;;;;;;5111862;28;20040;-66
2023/07/02 05:41:36;;;;;;;15.30;8.27;;;24.50;81.70;;;;;;5106562;28;20039;-61
2023/07/02 05:44:02;;;;;;;15.93;8.20;;;24.50;81.50;;;;;;5115434;28;20075;-62
2023/07/02 05:46:28;;;;;;;15.40;7.68;;;24.60;81.00;;;;;;5096046;28;20048;-61
2023/07/02 05:48:57;;;;;;;14.00;7.30;;;24.70;80.90;;;;;;5115938;28;20035;-61
2023/07/02 05:51:23;;;;;;;14.35;7.25;;;24.60;79.60;;;;;;5109867;28;20050;-61
2023/07/02 05:53:50;;;;;;;14.25;7.97;;;25.10;82.80;;;;;;5114016;28;20055;-61
2023/07/02 05:56:16;;;;;;;14.57;7.97;;;24.80;80.70;;;;;;5114882;28;20043;-61
2023/07/02 05:58:42;;;;;;;16.42;7.82;;;24.80;80.10;;;;;;5113896;28;20048;-61
2023/07/02 06:01:07;;;;;;;17.85;7.40;;;25.10;79.90;;;;;;5112978;28;20042;-61
2023/07/02 06:03:33;;;;;;;13.85;7.53;;;24.70;79.80;;;;;;5114919;28;20545;-64
2023/07/02 06:05:59;;;;;;;13.13;7.00;;;24.90;80.00;;;;;;5112443;28;20619;-65
2023/07/02 06:08:25;;;;;;;13.95;7.55;;;24.80;80.30;;;;;;5114537;28;20401;-63
2023/07/02 06:10:52;;;;;;;12.38;6.95;;;24.60;79.60;;;;;;5094825;28;20054;-62
2023/07/02 06:13:17;;;;;;;14.65;7.20;;;24.80;80.10;;;;;;5112447;28;20043;-67
2023/07/02 06:15:43;;;;;;;14.48;7.03;;;24.60;79.60;;;;;;5111638;28;20497;-62
2023/07/02 06:18:09;;;;;;;13.70;7.32;;;24.70;79.50;;;;;;5110062;28;20051;-62
2023/07/02 06:20:35;;;;;;;14.43;7.55;;;24.80;79.40;;;;;;5113759;28;20035;-63
2023/07/02 06:23:01;;;;;;;12.95;6.65;;;24.90;79.30;;;;;;5114288;28;20173;-67
2023/07/02 06:25:26;;;;;;;13.90;6.97;;;24.60;79.20;;;;;;5113076;28;20047;-66
2023/07/02 06:27:54;;;;;;;14.30;7.13;;;24.80;79.50;;;;;;5114127;28;20048;-61
2023/07/02 06:30:21;;;;;;;13.38;6.47;;;24.80;79.60;;;;;;5112720;28;20050;-70
2023/07/02 06:32:47;;;;;;;17.08;7.20;;;24.80;79.50;;;;;;5105362;28;20054;-63
2023/07/02 06:35:13;;;;;;;12.15;7.00;;;25.00;79.30;;;;;;5112594;28;20423;-61
2023/07/02 06:37:39;;;;;;;14.88;6.68;;;25.10;81.70;;;;;;5114247;28;20040;-64
2023/07/02 06:40:06;;;;;;;13.93;6.70;;;25.00;78.70;;;;;;5104385;28;20448;-63
2023/07/02 06:42:32;;;;;;;12.80;6.65;;;25.30;78.50;;;;;;5113619;28;20039;-61
2023/07/02 06:44:59;;;;;;;13.05;6.50;;;25.10;78.60;;;;;;5114514;28;20028;-62
2023/07/02 06:47:24;;;;;;;13.82;6.68;;;25.10;78.60;;;;;;5113663;28;20580;-61
2023/07/02 06:49:52;;;;;;;11.15;6.32;;;25.00;78.20;;;;;;5112817;28;20031;-61
2023/07/02 06:52:18;;;;;;;11.65;6.18;;;24.90;78.40;;;;;;5111910;28;20126;-62
2023/07/02 06:54:44;;;;;;;11.18;5.97;;;25.00;78.20;;;;;;5113507;28;20036;-66
2023/07/02 06:57:10;;;;;;;11.43;6.20;;;25.00;78.00;;;;;;5113528;28;20035;-64
2023/07/02 06:59:36;;;;;;;10.98;6.22;;;25.30;78.20;;;;;;5110043;28;20106;-61
2023/07/02 07:02:02;;;;;;;10.20;6.28;;;25.10;77.90;;;;;;5112347;28;20142;-61
2023/07/02 07:04:28;;;;;;;11.57;6.28;;;25.00;77.60;;;;;;5111077;28;20085;-62
2023/07/02 07:06:55;;;;;;;12.20;6.05;;;25.30;78.00;;;;;;5112351;28;20065;-67
2023/07/02 07:09:21;;;;;;;11.40;5.97;;;25.30;78.00;;;;;;5113417;28;20565;-66
2023/07/02 07:11:47;;;;;;;10.75;6.13;;;25.20;77.60;;;;;;5111216;28;20493;-61
2023/07/02 07:14:13;;;;;;;9.52;5.45;;;25.60;77.80;;;;;;5112747;28;20082;-66
2023/07/02 07:16:39;;;;;;;11.27;6.25;;;25.60;77.20;;;;;;5110148;28;20051;-66
2023/07/02 07:19:05;;;;;;;11.23;6.03;;;25.50;77.40;;;;;;5113445;28;20035;-61
2023/07/02 07:21:31;;;;;;;11.35;5.88;;;25.40;77.60;;;;;;5112622;28;20078;-61
2023/07/02 07:23:57;;;;;;;12.65;6.10;;;25.60;77.60;;;;;;5106879;28;20071;-62
2023/07/02 07:26:23;;;;;;;10.02;5.93;;;25.30;77.60;;;;;;5112144;28;20123;-61
2023/07/02 07:28:48;;;;;;;10.85;6.47;;;25.20;77.60;;;;;;5113085;28;20039;-61
2023/07/02 07:31:15;;;;;;;12.63;5.75;;;25.00;77.70;;;;;;5112596;28;20104;-61
2023/07/02 07:33:40;;;;;;;12.02;6.20;;;25.40;77.60;;;;;;5111820;28;20048;-62
2023/07/02 07:36:06;;;;;;;10.18;5.22;;;25.10;77.50;;;;;;5104001;28;20043;-61
2023/07/02 07:38:32;;;;;;;11.65;5.97;;;25.40;77.50;;;;;;5112766;28;20036;-69
2023/07/02 07:40:58;;;;;;;10.80;6.18;;;25.40;77.30;;;;;;5107008;28;20036;-64
2023/07/02 07:43:24;;;;;;;10.68;5.20;;;25.20;76.80;;;;;;5109917;28;20036;-65
2023/07/02 07:45:50;;;;;;;8.30;5.10;;;25.40;76.30;;;;;;5107616;28;20139;-61
2023/07/02 07:48:16;;;;;;;9.65;4.93;;;25.70;76.80;;;;;;5108954;28;20087;-65
2023/07/02 07:50:41;;;;;;;13.77;5.38;;;25.50;76.50;;;;;;5111625;28;20048;-62
2023/07/02 07:53:07;;;;;;;12.95;5.20;;;25.70;76.60;;;;;;5111004;28;20116;-64
2023/07/02 07:55:33;;;;;;;10.60;5.53;;;25.70;76.30;;;;;;5109459;28;20192;-68
2023/07/02 07:57:59;;;;;;;10.70;5.18;;;25.90;76.50;;;;;;5112625;28;20122;-62
2023/07/02 08:00:26;;;;;;;9.48;4.95;;;25.80;76.30;;;;;;5110424;28;20085;-62
2023/07/02 08:02:55;;;;;;;11.85;5.45;;;25.80;76.30;;;;;;5105468;28;20478;-61
2023/07/02 08:05:21;;;;;;;10.02;5.15;;;26.10;76.30;;;;;;5111278;28;20092;-62
2023/07/02 08:07:47;;;;;;;9.27;4.55;;;26.10;76.30;;;;;;5109891;28;20402;-66
2023/07/02 08:10:12;;;;;;;10.10;5.68;;;26.00;75.70;;;;;;5110849;28;20127;-63
2023/07/02 08:12:38;;;;;;;10.68;5.05;;;26.00;75.70;;;;;;5092127;28;20122;-62
2023/07/02 08:15:05;;;;;;;11.35;4.97;;;25.80;75.50;;;;;;5110227;28;20047;-66
2023/07/02 08:17:30;;;;;;;9.00;4.07;;;25.80;75.20;;;;;;5110399;28;20066;-69
2023/07/02 08:19:57;;;;;;;10.98;4.75;;;25.80;75.50;;;;;;5111829;28;20431;-67
2023/07/02 08:22:23;;;;;;;10.55;4.63;;;25.90;75.40;;;;;;5091706;28;20481;-66
2023/07/02 08:24:51;;;;;;;9.95;4.72;;;25.90;75.40;;;;;;5112631;28;20042;-61
2023/07/02 08:27:19;;;;;;;8.63;4.30;;;26.20;74.30;;;;;;5109481;28;20516;-61
2023/07/02 08:29:48;;;;;;;8.10;4.15;;;26.10;75.20;;;;;;5094551;28;20102;-68
2023/07/02 08:32:14;;;;;;;8.45;3.83;;;26.20;75.20;;;;;;5105769;28;20052;-61
2023/07/02 08:34:40;;;;;;;10.18;3.97;;;26.00;75.30;;;;;;5113798;28;20059;-68
2023/07/02 08:37:06;;;;;;;11.02;3.97;;;26.20;75.00;;;;;;5111331;28;20036;-65
2023/07/02 08:39:32;;;;;;;9.40;4.30;;;26.10;74.90;;;;;;5097915;28;20050;-66
2023/07/02 08:41:57;;;;;;;8.55;4.25;;;26.00;74.80;;;;;;5115409;28;20058;-61
2023/07/02 08:44:23;;;;;;;10.70;4.15;;;26.20;74.90;;;;;;5113516;28;20115;-61
2023/07/02 08:46:50;;;;;;;8.98;4.18;;;25.90;74.70;;;;;;5116364;28;20042;-64
2023/07/02 08:49:17;;;;;;;8.88;4.18;;;26.00;74.90;;;;;;5108366;28;20055;-64
2023/07/02 08:51:46;;;;;;;8.60;4.18;;;25.70;74.80;;;;;;5115791;28;20500;-64
2023/07/02 08:54:11;;;;;;;9.43;3.95;;;25.40;77.80;;;;;;5112163;28;20040;-61
2023/07/02 08:56:38;;;;;;;11.10;4.20;;;25.40;74.80;;;;;;5114571;28;20404;-61
2023/07/02 08:59:09;;;;;;;8.60;3.88;;;25.60;75.20;;;;;;5114908;28;20036;-61
2023/07/02 09:01:53;;;;;;;11.40;4.57;;;25.30;73.80;;;;;;5112126;27;20059;-61
2023/07/02 09:04:20;;;;;;;8.90;3.85;;;25.50;75.60;;;;;;5111505;28;20047;-66
2023/07/02 09:06:47;;;;;;;9.60;4.00;;;25.30;75.40;;;;;;5099043;28;20508;-61
2023/07/02 09:09:13;;;;;;;9.63;4.60;;;25.40;75.70;;;;;;5112795;28;20126;-67
2023/07/02 09:11:51;;;;;;;9.85;4.38;;;25.60;75.50;;;;;;5112736;28;20122;-69
2023/07/02 09:14:32;;;;;;;9.75;4.05;;;25.20;75.70;;;;;;5115917;28;20066;-65
2023/07/02 09:17:05;;;;;;;10.02;4.10;;;25.40;75.60;;;;;;5110121;28;20381;-61
2023/07/02 09:19:31;;;;;;;7.63;4.03;;;25.30;75.80;;;;;;5109106;28;20078;-61
2023/07/02 09:21:59;;;;;;;9.50;4.38;;;25.40;75.30;;;;;;5105062;28;20035;-66
2023/07/02 09:24:25;;;;;;;10.85;3.95;;;25.40;75.60;;;;;;5105740;28;20036;-69
2023/07/02 09:27:00;;;;;;;9.10;4.25;;;25.50;75.20;;;;;;5107693;28;20036;-68
2023/07/02 09:29:33;;;;;;;7.85;3.78;;;25.60;74.10;;;;;;5106282;28;20047;-68
2023/07/02 09:32:08;;;;;;;7.97;4.18;;;25.50;75.40;;;;;;5106047;28;20504;-68
2023/07/02 09:34:35;;;;;;;10.07;3.60;;;25.30;73.80;;;;;;5108322;28;20043;-65
2023/07/02 09:37:03;;;;;;;9.68;3.95;;;25.50;75.30;;;;;;5106589;28;20063;-67
2023/07/02 09:39:33;;;;;;;8.25;4.07;;;25.80;75.50;;;;;;5103181;28;20085;-63
2023/07/02 09:42:00;;;;;;;10.10;3.83;;;25.50;75.40;;;;;;5095389;28;20059;-61
2023/07/02 09:44:29;;;;;;;7.68;3.67;;;25.40;75.30;;;;;;5105362;28;20043;-61
2023/07/02 09:47:02;;;;;;;8.57;3.67;;;25.50;75.50;;;;;;5115448;28;20055;-61
2023/07/02 09:49:27;;;;;;;7.10;4.05;;;25.50;75.40;;;;;;5113878;28;20047;-62
2023/07/02 09:51:53;;;;;;;9.60;4.25;;;25.40;75.00;;;;;;5080857;28;20051;-64
2023/07/02 09:54:20;;;;;;;9.38;3.45;;;25.40;75.10;;;;;;5097399;28;20115;-62
2023/07/02 09:56:47;;;;;;;6.75;3.70;;;25.40;75.30;;;;;;5086149;28;20055;-61
2023/07/02 09:59:14;;;;;;;8.60;3.58;;;25.60;75.20;;;;;;5111154;28;20416;-61
2023/07/02 10:01:40;;;;;;;9.30;4.13;;;25.40;75.10;;;;;;5097440;28;20051;-70
2023/07/02 10:04:13;;;;;;;7.68;3.42;;;25.20;75.00;;;;;;5115691;28;20373;-61
2023/07/02 10:06:52;;;;;;;34.70;5.70;;;25.30;75.80;;;;;;5115206;28;20043;-68
2023/07/02 10:09:19;;;;;;;121.35;11.40;;;24.90;74.10;;;;;;5111652;28;20177;-66
2023/07/02 10:11:44;;;;;;;82.30;9.48;;;25.00;75.30;;;;;;5114888;28;20537;-68
2023/07/02 10:14:10;;;;;;;51.05;7.05;;;25.10;75.30;;;;;;5101386;28;20048;-65
2023/07/02 10:16:52;;;;;;;73.43;9.00;;;25.00;75.30;;;;;;5113427;28;20043;-66
2023/07/02 10:19:18;;;;;;;45.83;7.88;;;25.10;75.90;;;;;;5114018;28;20058;-65
2023/07/02 10:21:48;;;;;;;60.08;8.10;;;25.10;75.50;;;;;;5115419;28;20040;-63
2023/07/02 10:24:15;;;;;;;52.90;6.22;;;25.00;74.70;;;;;;5115500;28;20382;-67
2023/07/02 10:26:56;;;;;;;45.28;6.07;;;24.80;75.50;;;;;;5105045;28;20036;-70
2023/07/02 10:29:26;;;;;;;43.13;6.55;;;25.10;75.90;;;;;;5109283;28;20066;-68
2023/07/02 10:31:52;;;;;;;33.15;5.57;;;24.70;75.70;;;;;;5114221;28;20095;-66
2023/07/02 10:34:36;;;;;;;35.75;4.78;;;25.00;75.70;;;;;;5113165;28;20134;-65
2023/07/02 10:37:03;;;;;;;27.38;4.75;;;24.80;74.80;;;;;;5114558;28;20039;-66
2023/07/02 10:39:34;;;;;;;30.58;4.93;;;24.80;74.90;;;;;;5113862;28;20035;-64
2023/07/02 10:42:04;;;;;;;24.42;5.05;;;24.80;73.60;;;;;;5113202;28;20544;-67
2023/07/02 10:44:31;;;;;;;20.30;4.25;;;25.10;75.40;;;;;;5114653;28;20039;-68
2023/07/02 10:46:57;;;;;;;18.42;4.20;;;25.00;75.10;;;;;;5107891;28;20040;-61
2023/07/02 10:49:30;;;;;;;18.20;3.58;;;25.10;74.60;;;;;;5110821;28;20393;-63
2023/07/02 10:52:03;;;;;;;14.80;3.92;;;24.80;74.80;;;;;;5113898;28;20069;-65
2023/07/02 10:54:40;;;;;;;14.85;4.32;;;25.20;75.10;;;;;;5108190;28;20036;-64
2023/07/02 10:57:10;;;;;;;11.75;3.30;;;24.70;74.90;;;;;;5089756;28;20051;-67
2023/07/02 10:59:36;;;;;;;13.65;3.63;;;24.90;73.40;;;;;;5095240;28;20173;-66
2023/07/02 11:02:03;;;;;;;12.73;3.35;;;24.80;74.50;;;;;;5111647;28;20114;-65
2023/07/02 11:04:32;;;;;;;12.38;3.22;;;24.80;74.30;;;;;;5107492;28;20152;-66
2023/07/02 11:06:58;;;;;;;12.20;3.42;;;25.10;74.50;;;;;;5113347;28;20035;-65
2023/07/02 11:09:24;;;;;;;9.75;3.30;;;24.80;74.20;;;;;;5114434;28;20071;-69
2023/07/02 11:11:59;;;;;;;10.98;3.33;;;24.90;74.70;;;;;;5114018;28;20047;-68
2023/07/02 11:14:28;;;;;;;11.23;3.58;;;24.80;74.90;;;;;;5111537;28;20481;-65
2023/07/02 11:16:55;;;;;;;8.75;3.53;;;24.70;74.50;;;;;;5113901;28;20085;-67
2023/07/02 11:19:21;;;;;;;10.63;3.25;;;24.80;74.40;;;;;;5114208;28;20039;-68
2023/07/02 11:21:55;;;;;;;10.95;3.28;;;24.80;73.90;;;;;;5097629;28;20399;-69
2023/07/02 11:24:30;;;;;;;8.82;3.15;;;24.70;74.40;;;;;;5110990;28;20040;-70
2023/07/02 11:26:56;;;;;;;7.15;2.75;;;24.70;74.40;;;;;;5111523;28;20039;-60
2023/07/02 11:29:22;;;;;;;7.50;3.00;;;24.70;74.30;;;;;;5105312;28;20047;-61
2023/07/02 11:31:48;;;;;;;12.85;3.97;;;24.60;74.10;;;;;;5116187;27;20154;-61
2023/07/02 11:34:20;;;;;;;28.83;4.95;;;24.80;73.50;;;;;;5134535;27;20528;-63
2023/07/02 11:36:46;;;;;;;22.25;4.07;;;24.70;73.90;;;;;;5111603;27;20558;-61
2023/07/02 11:39:12;;;;;;;10.70;4.05;;;24.50;73.30;;;;;;5113350;28;20409;-61
2023/07/02 11:41:44;;;;;;;11.10;3.60;;;24.70;73.00;;;;;;5095121;28;20512;-66
2023/07/02 11:44:10;;;;;;;13.88;3.65;;;24.40;71.80;;;;;;5113652;28;20039;-64
2023/07/02 11:46:36;;;;;;;10.32;3.72;;;24.70;73.20;;;;;;5112043;28;20382;-65
2023/07/02 11:49:04;;;;;;;11.32;3.60;;;24.60;72.90;;;;;;5113238;28;20044;-65
2023/07/02 11:51:31;;;;;;;10.18;3.53;;;24.80;73.00;;;;;;5113629;28;20048;-67
2023/07/02 11:53:57;;;;;;;13.15;4.05;;;24.70;72.80;;;;;;5113283;28;20047;-61
2023/07/02 11:56:23;;;;;;;12.52;3.70;;;24.50;72.20;;;;;;5109935;28;20134;-64
2023/07/02 11:58:49;;;;;;;11.70;3.70;;;24.50;75.20;;;;;;5094694;28;20472;-59
2023/07/02 12:01:15;;;;;;;16.95;4.00;;;24.60;72.10;;;;;;5112434;28;20047;-63
2023/07/02 12:03:41;;;;;;;10.30;3.40;;;24.30;71.70;;;;;;5111069;28;20043;-66
2023/07/02 12:06:06;;;;;;;12.57;3.83;;;24.30;72.10;;;;;;5112430;28;20473;-63
2023/07/02 12:08:32;;;;;;;15.80;3.60;;;24.60;72.40;;;;;;5107360;28;20188;-65
2023/07/02 12:10:58;;;;;;;19.85;4.50;;;24.30;72.00;;;;;;5108020;28;20448;-60
2023/07/02 12:13:24;;;;;;;14.05;3.70;;;24.70;72.50;;;;;;5098252;28;20405;-61
2023/07/02 12:15:51;;;;;;;16.92;3.40;;;24.50;72.00;;;;;;5113245;28;20382;-60
2023/07/02 12:18:17;;;;;;;12.73;3.30;;;24.60;72.60;;;;;;5113447;28;20051;-61
2023/07/02 12:20:43;;;;;;;11.68;3.50;;;24.60;72.00;;;;;;5109839;28;20048;-61
2023/07/02 12:23:10;;;;;;;11.68;3.03;;;24.50;71.50;;;;;;5111476;28;20061;-60
2023/07/02 12:25:36;;;;;;;7.28;2.75;;;24.70;71.70;;;;;;5112893;28;20084;-64
2023/07/02 12:28:05;;;;;;;14.60;3.25;;;24.50;70.90;;;;;;5106774;28;20047;-69
2023/07/02 12:30:31;;;;;;;9.68;3.35;;;24.60;69.50;;;;;;5108574;28;20055;-64
2023/07/02 12:32:58;;;;;;;10.95;3.35;;;24.60;70.60;;;;;;5109291;28;20048;-64
2023/07/02 12:35:24;;;;;;;8.85;3.10;;;24.50;69.90;;;;;;5111966;28;20040;-67
2023/07/02 12:37:51;;;;;;;12.63;2.83;;;24.40;69.90;;;;;;5107393;28;20220;-63
2023/07/02 12:40:17;;;;;;;8.85;3.15;;;24.50;70.50;;;;;;5109910;28;20050;-62